KFBG/FBG METAR and TAF weather

Enter ICAO airport designator
Station Type Date Time Source
KFBG METAR 2020/07/14 04:56 UTC NOAA

KFBG 140456Z AUTO 27003KT 10SM CLR 23/23 A2991 RMK AO2 SLP129 T02290229 403400221 $


Station Type Date Time Source
KFBG Decoded METAR 2020/07/14 04:56 UTC NOAA

Fort Bragg / Simmons Army Airfield, NC, United States (KFBG) 35-08N 078-56W 74M
Jul 14, 2020 - 12:56 AM EDT / 2020.07.14 0456 UTC
Wind: from the W (270 degrees) at 3 MPH (3 KT):0
Visibility: 10 mile(s):0
Sky conditions: clear
Temperature: 73.2 F (22.9 C)
Dew Point: 73.2 F (22.9 C)
Relative Humidity: 100%
Pressure (altimeter): 29.91 in. Hg (1012 hPa)
ob: KFBG 140456Z AUTO 27003KT 10SM CLR 23/23 A2991 RMK AO2 SLP129 T02290229 403400221
cycle: 5

Station Type Date Time Source
KFBG TAF 2020/07/14 23:00 UTC NOAA

TAF
AMD KFBG 132340Z 1323/1423 29006KT 9999 BKN035 OVC055 QNH2987INS
TEMPO 1400/1401 VRB25G35KT 3200 TSRA BKN030CB
TEMPO 1401/1402 VRB10G15KT 6000 -TSRA BKN030CB
BECMG 1408/1409 01006KT 6000 BR FEW025 FEW040 SCT055 QNH2991INS
BECMG 1414/1415 02006KT 9999 NSW SCT050 QNH2997INS
BECMG 1419/1420 06006KT 8000 -SHRA VCTS BKN050CB QNH2996INS TX34/1420Z TN22/1410Z

Example: see airport list